Duxford Airport


Codes: EGSU/QFO
Name: Duxford Airport
City: Duxford
Country: United Kingdom
Elevation: 125 ft.
Wikipedia:

Photos at Duxford Airport


   Photos courtesy of SpottingLog. You can add your own sightings and photos by signing up for a free trial today.



G-ALZO, 29-Apr-2024
© Rob Dolton

XH897, 29-Apr-2024
© Rob Dolton

G-LEGZ, 28-Oct-2021
© ibrahim Ahmet

433915, 28-Oct-2021
© ibrahim Ahmet

G-CGGG, 28-Oct-2021
© ibrahim Ahmet

G-KOLI, 28-Oct-2021
© ibrahim Ahmet

G-IFFR, 28-Oct-2021
© ibrahim Ahmet

G-FEGN, 28-Oct-2021
© ibrahim Ahmet

G-GUAR, 28-Oct-2021
© ibrahim Ahmet

G-CGZP, 28-Oct-2021
© ibrahim Ahmet

N7614C, 28-Oct-2021
© ibrahim Ahmet

G-CWFT, 28-Oct-2021
© ibrahim Ahmet


Weather at Duxford Airport


Time (UTC)DescriptionTempratureWindCloud coverageVisibilityPressureHumidity
17-Jun-2024 06:00Scattered Clouds10°C9 mph, SW34%10000m1007hPa89%
17-Jun-2024 09:00Few Clouds14°C11 mph, SW17%10000m1009hPa77%
17-Jun-2024 12:00Clear Sky18°C9 mph, SW3%10000m1010hPa62%
17-Jun-2024 15:00Light Rain19°C9 mph, W46%10000m1010hPa68%
17-Jun-2024 18:00Light Rain17°C7 mph, W61%10000m1012hPa83%
17-Jun-2024 21:00Light Rain13°C4 mph, W99%10000m1013hPa89%
18-Jun-2024 00:00Overcast Clouds12°C4 mph, NW100%10000m1014hPa93%
18-Jun-2024 03:00Overcast Clouds10°C4 mph, NW100%10000m1014hPa93%
18-Jun-2024 06:00Overcast Clouds12°C7 mph, NW97%10000m1015hPa90%
18-Jun-2024 09:00Broken Clouds16°C9 mph, NW66%10000m1016hPa77%
18-Jun-2024 12:00Broken Clouds19°C7 mph, N84%10000m1016hPa68%
18-Jun-2024 15:00Light Rain17°C11 mph, N100%10000m1016hPa80%
18-Jun-2024 18:00Light Rain16°C13 mph, N73%10000m1017hPa86%
18-Jun-2024 21:00Clear Sky11°C7 mph, NE2%10000m1019hPa96%
19-Jun-2024 00:00Clear Sky9°C7 mph, NE4%10000m1020hPa97%
19-Jun-2024 03:00Broken Clouds8°C7 mph, N57%10000m1020hPa98%
19-Jun-2024 06:00Broken Clouds11°C7 mph, NE65%10000m1022hPa95%
19-Jun-2024 09:00Overcast Clouds15°C7 mph, NE100%10000m1022hPa76%
19-Jun-2024 12:00Overcast Clouds18°C4 mph, NE100%10000m1022hPa65%
19-Jun-2024 15:00Overcast Clouds19°C4 mph, NE100%10000m1022hPa62%
19-Jun-2024 18:00Overcast Clouds18°C4 mph, SE100%10000m1022hPa76%
19-Jun-2024 21:00Broken Clouds11°C7 mph, SE60%10000m1023hPa93%
20-Jun-2024 00:00Broken Clouds10°C4 mph, SE60%10000m1023hPa86%
20-Jun-2024 03:00Scattered Clouds9°C4 mph, SE37%10000m1022hPa84%
20-Jun-2024 06:00Scattered Clouds12°C4 mph, E36%10000m1021hPa79%
20-Jun-2024 09:00Overcast Clouds17°C9 mph, E99%10000m1020hPa63%
20-Jun-2024 12:00Overcast Clouds19°C9 mph, E94%10000m1018hPa58%
20-Jun-2024 15:00Overcast Clouds18°C9 mph, E100%10000m1017hPa69%
20-Jun-2024 18:00Overcast Clouds14°C7 mph, E100%10000m1016hPa80%
20-Jun-2024 21:00Overcast Clouds11°C7 mph, NE87%10000m1015hPa94%
21-Jun-2024 00:00Overcast Clouds10°C7 mph, N91%10000m1013hPa97%
21-Jun-2024 03:00Broken Clouds10°C9 mph, N62%10000m1012hPa96%
21-Jun-2024 06:00Broken Clouds12°C9 mph, NW63%10000m1011hPa89%
21-Jun-2024 09:00Scattered Clouds16°C7 mph, NW45%10000m1011hPa71%
21-Jun-2024 12:00Broken Clouds19°C7 mph, NW65%10000m1011hPa66%
21-Jun-2024 15:00Overcast Clouds20°C7 mph, W87%10000m1010hPa62%
21-Jun-2024 18:00Broken Clouds19°C7 mph, SW76%10000m1010hPa73%
21-Jun-2024 21:00Light Rain15°C9 mph, SW70%10000m1011hPa95%
22-Jun-2024 00:00Broken Clouds14°C9 mph, SW61%10000m1010hPa97%
22-Jun-2024 03:00Broken Clouds12°C7 mph, SW68%10000m1010hPa97%